マイアミ の空港の天気 - METARとTAF

マイアミ国際空港 ( KMIA / MIA ) - アメリカ フロリダ州マイアミ
飛行場実況気象(Metar)
観測時間06/03 06:53 EDT (06/03 10:53 UTC)
風向・風速東 3m/s
視程10km以上
天気現象
少しの雲 雲底高度 340m
全天の4割程度の雲 雲底高度 490m
全天の8割程度の雲 雲底高度 7620m
気温26.1℃
湿度88%
気圧1016hPa
METARKMIA 031053Z 09005KT 10SM FEW011 SCT016 BKN250 26/24 A3001 RMK AO2 LTG DSNT ALQDS SLP160 CB DSNT ALQDS MOV NW T02610239 $
過去の天気等 Google飛行場航空写真 Wunderground天気予報

過去48時間のMETAR

飛行場予報(TAF)
発表時間: 6/03 07:32 EDT (6/03 11:32 UTC)
予報対象時間: 3日8時 EDT ~ 4日14時 EDT
風向・風速東 3m/s
視程10km以上
天気現象しゅう雨 周辺で雷
全天の4割程度の積乱雲 雲底高度 460m
全天の8割程度の雲 雲底高度 7620m
3日10時 EDT から
風向・風速南東 8m/s
視程10km以上
天気現象周辺で雷
全天の4割程度の積乱雲 雲底高度 760m
全天の8割程度の雲 雲底高度 1520m
3日14時 EDT から
風向・風速南東 6m/s
視程10km以上
全天の4割程度の雲 雲底高度 760m
全天の4割程度の雲 雲底高度 1830m
3日21時 EDT から
風向・風速東南東 3m/s
視程10km以上
全天の4割程度の雲 雲底高度 760m
全天の8割程度の雲 雲底高度 1520m
4日9時 EDT から
風向・風速東南東 5m/s
視程10km以上
天気現象周辺で雷
全天の4割程度の積乱雲 雲底高度 760m
全天の8割程度の雲 雲底高度 1370m
KMIA 031132Z 0312/0418 10006KT P6SM SHRA VCTS SCT015CB BKN250
FM031400 13015KT P6SM VCTS SCT025CB BKN050
FM031800 13012KT P6SM SCT025 SCT060
FM040100 11005KT P6SM SCT025 BKN050
FM041300 12010KT P6SM VCTS SCT025CB BKN045